sensor_id;sensor_type;location;lat;lon;timestamp;P1;durP1;ratioP1;P2;durP2;ratioP2
22973;SDS011;11653;50.848;4.584;2023-02-11T00:01:26;17.93;;;8.60;;
22973;SDS011;11653;50.848;4.584;2023-02-11T00:03:55;19.70;;;8.23;;
22973;SDS011;11653;50.848;4.584;2023-02-11T00:06:22;19.03;;;8.60;;
22973;SDS011;11653;50.848;4.584;2023-02-11T00:08:49;21.30;;;8.77;;
22973;SDS011;11653;50.848;4.584;2023-02-11T00:11:15;24.63;;;7.63;;
22973;SDS011;11653;50.848;4.584;2023-02-11T00:13:42;16.70;;;6.57;;
22973;SDS011;11653;50.848;4.584;2023-02-11T00:16:10;14.13;;;6.80;;
22973;SDS011;11653;50.848;4.584;2023-02-11T00:18:37;17.50;;;7.67;;
22973;SDS011;11653;50.848;4.584;2023-02-11T00:21:10;20.77;;;6.97;;
22973;SDS011;11653;50.848;4.584;2023-02-11T00:23:38;20.77;;;7.70;;
22973;SDS011;11653;50.848;4.584;2023-02-11T00:26:10;17.93;;;8.17;;
22973;SDS011;11653;50.848;4.584;2023-02-11T00:28:37;21.07;;;7.63;;
22973;SDS011;11653;50.848;4.584;2023-02-11T00:31:03;17.23;;;7.90;;
22973;SDS011;11653;50.848;4.584;2023-02-11T00:33:29;22.60;;;8.03;;
22973;SDS011;11653;50.848;4.584;2023-02-11T00:35:54;19.97;;;7.20;;
22973;SDS011;11653;50.848;4.584;2023-02-11T00:38:20;20.40;;;8.07;;
22973;SDS011;11653;50.848;4.584;2023-02-11T00:40:46;21.93;;;9.27;;
22973;SDS011;11653;50.848;4.584;2023-02-11T00:43:12;20.70;;;9.23;;
22973;SDS011;11653;50.848;4.584;2023-02-11T00:45:38;17.90;;;8.30;;
22973;SDS011;11653;50.848;4.584;2023-02-11T00:48:03;22.57;;;8.10;;
22973;SDS011;11653;50.848;4.584;2023-02-11T00:50:29;21.07;;;8.73;;
22973;SDS011;11653;50.848;4.584;2023-02-11T00:52:55;18.67;;;7.40;;
22973;SDS011;11653;50.848;4.584;2023-02-11T00:55:20;24.50;;;7.97;;
22973;SDS011;11653;50.848;4.584;2023-02-11T00:57:46;17.53;;;7.77;;
22973;SDS011;11653;50.848;4.584;2023-02-11T01:00:12;19.07;;;7.70;;
22973;SDS011;11653;50.848;4.584;2023-02-11T01:02:40;17.80;;;6.33;;
22973;SDS011;11653;50.848;4.584;2023-02-11T01:05:05;17.73;;;7.03;;
22973;SDS011;11653;50.848;4.584;2023-02-11T01:07:31;21.37;;;8.27;;
22973;SDS011;11653;50.848;4.584;2023-02-11T01:09:57;23.70;;;7.43;;
22973;SDS011;11653;50.848;4.584;2023-02-11T01:12:23;22.63;;;7.70;;
22973;SDS011;11653;50.848;4.584;2023-02-11T01:14:49;19.87;;;7.93;;
22973;SDS011;11653;50.848;4.584;2023-02-11T01:17:15;23.20;;;8.00;;
22973;SDS011;11653;50.848;4.584;2023-02-11T01:19:40;20.37;;;8.57;;
22973;SDS011;11653;50.848;4.584;2023-02-11T01:22:06;23.50;;;8.40;;
22973;SDS011;11653;50.848;4.584;2023-02-11T01:24:32;16.67;;;7.70;;
22973;SDS011;11653;50.848;4.584;2023-02-11T01:26:58;21.20;;;8.13;;
22973;SDS011;11653;50.848;4.584;2023-02-11T01:29:23;18.27;;;8.03;;
22973;SDS011;11653;50.848;4.584;2023-02-11T01:31:49;19.07;;;7.87;;
22973;SDS011;11653;50.848;4.584;2023-02-11T01:34:15;24.90;;;8.37;;
22973;SDS011;11653;50.848;4.584;2023-02-11T01:36:40;15.53;;;7.80;;
22973;SDS011;11653;50.848;4.584;2023-02-11T01:39:07;20.47;;;8.87;;
22973;SDS011;11653;50.848;4.584;2023-02-11T01:41:33;21.00;;;8.30;;
22973;SDS011;11653;50.848;4.584;2023-02-11T01:46:52;25.70;;;8.40;;
22973;SDS011;11653;50.848;4.584;2023-02-11T01:49:29;27.80;;;9.30;;
22973;SDS011;11653;50.848;4.584;2023-02-11T01:52:02;21.37;;;8.47;;
22973;SDS011;11653;50.848;4.584;2023-02-11T01:54:48;19.97;;;8.97;;
22973;SDS011;11653;50.848;4.584;2023-02-11T01:57:36;21.90;;;8.27;;
22973;SDS011;11653;50.848;4.584;2023-02-11T02:00:12;24.47;;;9.20;;
22973;SDS011;11653;50.848;4.584;2023-02-11T02:05:37;17.17;;;8.43;;
22973;SDS011;11653;50.848;4.584;2023-02-11T02:08:22;24.63;;;9.07;;
22973;SDS011;11653;50.848;4.584;2023-02-11T02:10:59;18.93;;;9.27;;
22973;SDS011;11653;50.848;4.584;2023-02-11T02:13:27;28.37;;;11.27;;
22973;SDS011;11653;50.848;4.584;2023-02-11T02:15:56;20.33;;;8.67;;
22973;SDS011;11653;50.848;4.584;2023-02-11T02:35:18;26.10;;;8.63;;
22973;SDS011;11653;50.848;4.584;2023-02-11T02:40:42;26.37;;;9.07;;
22973;SDS011;11653;50.848;4.584;2023-02-11T02:43:32;28.27;;;10.30;;
22973;SDS011;11653;50.848;4.584;2023-02-11T02:46:20;26.67;;;8.83;;
22973;SDS011;11653;50.848;4.584;2023-02-11T02:48:49;24.30;;;9.03;;
22973;SDS011;11653;50.848;4.584;2023-02-11T02:51:41;27.53;;;9.27;;
22973;SDS011;11653;50.848;4.584;2023-02-11T03:02:51;20.60;;;8.87;;
22973;SDS011;11653;50.848;4.584;2023-02-11T03:10:42;27.67;;;8.53;;
22973;SDS011;11653;50.848;4.584;2023-02-11T03:13:11;26.37;;;9.30;;
22973;SDS011;11653;50.848;4.584;2023-02-11T03:15:43;25.70;;;9.17;;
22973;SDS011;11653;50.848;4.584;2023-02-11T03:18:14;23.00;;;8.17;;
22973;SDS011;11653;50.848;4.584;2023-02-11T03:20:43;23.27;;;9.03;;
22973;SDS011;11653;50.848;4.584;2023-02-11T03:23:28;20.20;;;8.87;;
22973;SDS011;11653;50.848;4.584;2023-02-11T03:29:01;28.73;;;10.23;;
22973;SDS011;11653;50.848;4.584;2023-02-11T03:31:42;22.63;;;9.10;;
22973;SDS011;11653;50.848;4.584;2023-02-11T03:34:25;22.47;;;10.23;;
22973;SDS011;11653;50.848;4.584;2023-02-11T03:37:04;23.00;;;9.67;;
22973;SDS011;11653;50.848;4.584;2023-02-11T03:39:54;23.17;;;9.50;;
22973;SDS011;11653;50.848;4.584;2023-02-11T03:42:27;26.73;;;10.80;;
22973;SDS011;11653;50.848;4.584;2023-02-11T03:44:59;23.13;;;9.40;;
22973;SDS011;11653;50.848;4.584;2023-02-11T03:47:38;24.20;;;11.10;;
22973;SDS011;11653;50.848;4.584;2023-02-11T03:50:08;26.10;;;10.87;;
22973;SDS011;11653;50.848;4.584;2023-02-11T03:52:36;28.33;;;9.87;;
22973;SDS011;11653;50.848;4.584;2023-02-11T03:55:05;25.83;;;10.27;;
22973;SDS011;11653;50.848;4.584;2023-02-11T03:57:35;23.90;;;10.80;;
22973;SDS011;11653;50.848;4.584;2023-02-11T04:00:02;28.40;;;11.37;;
22973;SDS011;11653;50.848;4.584;2023-02-11T04:02:30;27.97;;;12.83;;
22973;SDS011;11653;50.848;4.584;2023-02-11T04:04:57;24.07;;;11.87;;
22973;SDS011;11653;50.848;4.584;2023-02-11T04:07:23;24.40;;;11.90;;
22973;SDS011;11653;50.848;4.584;2023-02-11T04:09:49;29.27;;;11.33;;
22973;SDS011;11653;50.848;4.584;2023-02-11T04:12:14;24.43;;;11.53;;
22973;SDS011;11653;50.848;4.584;2023-02-11T04:14:40;28.37;;;11.93;;
22973;SDS011;11653;50.848;4.584;2023-02-11T04:17:06;22.77;;;11.77;;
22973;SDS011;11653;50.848;4.584;2023-02-11T04:19:31;23.27;;;12.30;;
22973;SDS011;11653;50.848;4.584;2023-02-11T04:21:57;25.13;;;13.30;;
22973;SDS011;11653;50.848;4.584;2023-02-11T04:24:23;25.53;;;12.70;;
22973;SDS011;11653;50.848;4.584;2023-02-11T04:26:49;24.43;;;12.23;;
22973;SDS011;11653;50.848;4.584;2023-02-11T04:29:15;27.20;;;13.07;;
22973;SDS011;11653;50.848;4.584;2023-02-11T04:31:40;40.27;;;13.20;;
22973;SDS011;11653;50.848;4.584;2023-02-11T04:34:06;27.63;;;14.17;;
22973;SDS011;11653;50.848;4.584;2023-02-11T04:36:32;29.40;;;13.30;;
22973;SDS011;11653;50.848;4.584;2023-02-11T04:38:57;26.10;;;13.70;;
22973;SDS011;11653;50.848;4.584;2023-02-11T04:41:24;33.63;;;13.53;;
22973;SDS011;11653;50.848;4.584;2023-02-11T04:43:49;27.87;;;13.53;;
22973;SDS011;11653;50.848;4.584;2023-02-11T04:46:15;28.53;;;12.77;;
22973;SDS011;11653;50.848;4.584;2023-02-11T04:48:41;31.40;;;12.33;;
22973;SDS011;11653;50.848;4.584;2023-02-11T04:51:06;24.83;;;13.73;;
22973;SDS011;11653;50.848;4.584;2023-02-11T04:53:33;34.30;;;13.80;;
22973;SDS011;11653;50.848;4.584;2023-02-11T04:55:58;31.17;;;13.93;;
22973;SDS011;11653;50.848;4.584;2023-02-11T04:58:24;32.57;;;14.70;;
22973;SDS011;11653;50.848;4.584;2023-02-11T05:00:50;30.93;;;15.00;;
22973;SDS011;11653;50.848;4.584;2023-02-11T05:03:16;34.77;;;15.67;;
22973;SDS011;11653;50.848;4.584;2023-02-11T05:05:42;39.87;;;16.23;;
22973;SDS011;11653;50.848;4.584;2023-02-11T05:08:08;39.07;;;14.57;;
22973;SDS011;11653;50.848;4.584;2023-02-11T05:10:34;32.13;;;14.67;;
22973;SDS011;11653;50.848;4.584;2023-02-11T05:13:01;35.40;;;15.03;;
22973;SDS011;11653;50.848;4.584;2023-02-11T05:15:26;34.53;;;15.67;;
22973;SDS011;11653;50.848;4.584;2023-02-11T05:17:53;28.60;;;14.07;;
22973;SDS011;11653;50.848;4.584;2023-02-11T05:20:19;35.60;;;16.10;;
22973;SDS011;11653;50.848;4.584;2023-02-11T05:22:45;35.17;;;16.43;;
22973;SDS011;11653;50.848;4.584;2023-02-11T05:25:10;35.03;;;16.77;;
22973;SDS011;11653;50.848;4.584;2023-02-11T05:27:36;45.13;;;16.93;;
22973;SDS011;11653;50.848;4.584;2023-02-11T05:30:02;36.43;;;16.23;;
22973;SDS011;11653;50.848;4.584;2023-02-11T05:32:29;35.57;;;15.70;;
22973;SDS011;11653;50.848;4.584;2023-02-11T05:34:55;36.20;;;17.27;;
22973;SDS011;11653;50.848;4.584;2023-02-11T05:37:20;42.00;;;17.50;;
22973;SDS011;11653;50.848;4.584;2023-02-11T05:39:46;38.00;;;17.73;;
22973;SDS011;11653;50.848;4.584;2023-02-11T05:42:12;40.10;;;17.20;;
22973;SDS011;11653;50.848;4.584;2023-02-11T05:44:38;41.50;;;17.67;;
22973;SDS011;11653;50.848;4.584;2023-02-11T05:47:04;34.37;;;17.57;;
22973;SDS011;11653;50.848;4.584;2023-02-11T05:49:32;38.53;;;17.33;;
22973;SDS011;11653;50.848;4.584;2023-02-11T05:51:58;43.70;;;18.70;;
22973;SDS011;11653;50.848;4.584;2023-02-11T05:54:24;45.20;;;18.73;;
22973;SDS011;11653;50.848;4.584;2023-02-11T05:56:49;42.33;;;19.03;;
22973;SDS011;11653;50.848;4.584;2023-02-11T05:59:15;41.50;;;19.23;;
22973;SDS011;11653;50.848;4.584;2023-02-11T06:01:41;41.03;;;18.20;;
22973;SDS011;11653;50.848;4.584;2023-02-11T06:04:06;42.17;;;16.93;;
22973;SDS011;11653;50.848;4.584;2023-02-11T06:06:32;45.13;;;19.77;;
22973;SDS011;11653;50.848;4.584;2023-02-11T06:08:58;40.07;;;18.63;;
22973;SDS011;11653;50.848;4.584;2023-02-11T06:11:23;40.90;;;18.03;;
22973;SDS011;11653;50.848;4.584;2023-02-11T06:13:49;50.27;;;19.63;;
22973;SDS011;11653;50.848;4.584;2023-02-11T06:16:15;56.63;;;20.90;;
22973;SDS011;11653;50.848;4.584;2023-02-11T06:18:40;43.37;;;20.17;;
22973;SDS011;11653;50.848;4.584;2023-02-11T06:21:07;42.13;;;18.97;;
22973;SDS011;11653;50.848;4.584;2023-02-11T06:23:33;46.93;;;20.73;;
22973;SDS011;11653;50.848;4.584;2023-02-11T06:26:02;47.07;;;20.37;;
22973;SDS011;11653;50.848;4.584;2023-02-11T06:28:33;47.17;;;20.80;;
22973;SDS011;11653;50.848;4.584;2023-02-11T06:31:06;40.60;;;20.57;;
22973;SDS011;11653;50.848;4.584;2023-02-11T06:33:32;53.77;;;21.67;;
22973;SDS011;11653;50.848;4.584;2023-02-11T06:35:58;47.10;;;20.23;;
22973;SDS011;11653;50.848;4.584;2023-02-11T06:38:24;50.83;;;21.63;;
22973;SDS011;11653;50.848;4.584;2023-02-11T06:40:50;41.97;;;20.40;;
22973;SDS011;11653;50.848;4.584;2023-02-11T06:43:15;49.23;;;20.97;;
22973;SDS011;11653;50.848;4.584;2023-02-11T06:45:41;47.43;;;20.77;;
22973;SDS011;11653;50.848;4.584;2023-02-11T06:48:07;50.80;;;21.87;;
22973;SDS011;11653;50.848;4.584;2023-02-11T06:50:33;54.73;;;22.80;;
22973;SDS011;11653;50.848;4.584;2023-02-11T06:52:59;45.80;;;22.50;;
22973;SDS011;11653;50.848;4.584;2023-02-11T06:55:24;57.63;;;23.27;;
22973;SDS011;11653;50.848;4.584;2023-02-11T06:57:50;55.20;;;22.80;;
22973;SDS011;11653;50.848;4.584;2023-02-11T07:00:16;53.57;;;23.20;;
22973;SDS011;11653;50.848;4.584;2023-02-11T07:02:42;54.20;;;23.90;;
22973;SDS011;11653;50.848;4.584;2023-02-11T07:05:08;53.07;;;23.17;;
22973;SDS011;11653;50.848;4.584;2023-02-11T07:07:34;52.47;;;23.67;;
22973;SDS011;11653;50.848;4.584;2023-02-11T07:10:00;51.53;;;22.50;;
22973;SDS011;11653;50.848;4.584;2023-02-11T07:12:28;49.37;;;23.27;;
22973;SDS011;11653;50.848;4.584;2023-02-11T07:14:54;50.97;;;22.73;;
22973;SDS011;11653;50.848;4.584;2023-02-11T07:17:21;55.00;;;23.97;;
22973;SDS011;11653;50.848;4.584;2023-02-11T07:19:46;60.60;;;24.90;;
22973;SDS011;11653;50.848;4.584;2023-02-11T07:22:12;50.37;;;23.50;;
22973;SDS011;11653;50.848;4.584;2023-02-11T07:24:37;57.00;;;24.33;;
22973;SDS011;11653;50.848;4.584;2023-02-11T07:27:03;57.40;;;24.90;;
22973;SDS011;11653;50.848;4.584;2023-02-11T07:29:29;61.77;;;24.73;;
22973;SDS011;11653;50.848;4.584;2023-02-11T07:31:54;68.03;;;25.70;;
22973;SDS011;11653;50.848;4.584;2023-02-11T07:34:20;56.80;;;25.57;;
22973;SDS011;11653;50.848;4.584;2023-02-11T07:36:46;65.50;;;25.20;;
22973;SDS011;11653;50.848;4.584;2023-02-11T07:39:12;59.47;;;25.80;;
22973;SDS011;11653;50.848;4.584;2023-02-11T07:41:38;55.87;;;26.80;;
22973;SDS011;11653;50.848;4.584;2023-02-11T07:44:04;64.57;;;26.13;;
22973;SDS011;11653;50.848;4.584;2023-02-11T07:46:31;63.73;;;26.60;;
22973;SDS011;11653;50.848;4.584;2023-02-11T07:48:58;58.17;;;25.53;;
22973;SDS011;11653;50.848;4.584;2023-02-11T07:51:28;69.77;;;26.70;;
22973;SDS011;11653;50.848;4.584;2023-02-11T07:53:56;60.97;;;24.90;;
22973;SDS011;11653;50.848;4.584;2023-02-11T07:56:23;69.70;;;25.80;;
22973;SDS011;11653;50.848;4.584;2023-02-11T07:58:49;55.93;;;24.70;;
22973;SDS011;11653;50.848;4.584;2023-02-11T08:01:21;65.33;;;24.57;;
22973;SDS011;11653;50.848;4.584;2023-02-11T08:03:52;68.60;;;25.40;;
22973;SDS011;11653;50.848;4.584;2023-02-11T08:06:19;58.57;;;25.03;;
22973;SDS011;11653;50.848;4.584;2023-02-11T08:08:46;59.40;;;24.63;;
22973;SDS011;11653;50.848;4.584;2023-02-11T08:11:31;64.13;;;25.47;;
22973;SDS011;11653;50.848;4.584;2023-02-11T08:13:56;61.83;;;26.00;;
22973;SDS011;11653;50.848;4.584;2023-02-11T08:16:29;58.50;;;26.20;;
22973;SDS011;11653;50.848;4.584;2023-02-11T08:18:58;73.30;;;25.80;;
22973;SDS011;11653;50.848;4.584;2023-02-11T08:21:26;58.30;;;25.37;;
22973;SDS011;11653;50.848;4.584;2023-02-11T08:23:52;63.87;;;26.53;;
22973;SDS011;11653;50.848;4.584;2023-02-11T08:26:20;66.20;;;25.80;;
22973;SDS011;11653;50.848;4.584;2023-02-11T08:28:47;64.53;;;25.47;;
22973;SDS011;11653;50.848;4.584;2023-02-11T08:31:15;72.43;;;27.63;;
22973;SDS011;11653;50.848;4.584;2023-02-11T08:33:43;64.50;;;26.13;;
22973;SDS011;11653;50.848;4.584;2023-02-11T08:36:10;66.03;;;27.13;;
22973;SDS011;11653;50.848;4.584;2023-02-11T08:38:38;60.53;;;26.33;;
22973;SDS011;11653;50.848;4.584;2023-02-11T08:41:03;60.17;;;26.63;;
22973;SDS011;11653;50.848;4.584;2023-02-11T08:43:30;63.00;;;26.17;;
22973;SDS011;11653;50.848;4.584;2023-02-11T08:45:56;56.10;;;26.10;;
22973;SDS011;11653;50.848;4.584;2023-02-11T08:48:22;62.27;;;26.90;;
22973;SDS011;11653;50.848;4.584;2023-02-11T08:50:48;63.77;;;27.03;;
22973;SDS011;11653;50.848;4.584;2023-02-11T08:53:13;59.77;;;25.57;;
22973;SDS011;11653;50.848;4.584;2023-02-11T08:55:39;79.93;;;29.60;;
22973;SDS011;11653;50.848;4.584;2023-02-11T08:58:04;63.50;;;26.80;;
22973;SDS011;11653;50.848;4.584;2023-02-11T09:00:30;67.43;;;28.67;;
22973;SDS011;11653;50.848;4.584;2023-02-11T09:02:56;69.93;;;29.17;;
22973;SDS011;11653;50.848;4.584;2023-02-11T09:05:21;68.53;;;26.10;;
22973;SDS011;11653;50.848;4.584;2023-02-11T09:07:47;69.53;;;27.40;;
22973;SDS011;11653;50.848;4.584;2023-02-11T09:10:13;66.93;;;25.10;;
22973;SDS011;11653;50.848;4.584;2023-02-11T09:12:39;65.10;;;27.73;;
22973;SDS011;11653;50.848;4.584;2023-02-11T09:15:04;68.23;;;28.23;;
22973;SDS011;11653;50.848;4.584;2023-02-11T09:17:30;66.37;;;27.90;;
22973;SDS011;11653;50.848;4.584;2023-02-11T09:19:56;70.87;;;28.37;;
22973;SDS011;11653;50.848;4.584;2023-02-11T09:22:21;67.47;;;27.80;;
22973;SDS011;11653;50.848;4.584;2023-02-11T09:24:47;79.67;;;28.20;;
22973;SDS011;11653;50.848;4.584;2023-02-11T09:27:13;76.73;;;28.17;;
22973;SDS011;11653;50.848;4.584;2023-02-11T09:29:38;63.83;;;26.63;;
22973;SDS011;11653;50.848;4.584;2023-02-11T09:32:04;65.03;;;28.37;;
22973;SDS011;11653;50.848;4.584;2023-02-11T09:34:29;65.67;;;26.83;;
22973;SDS011;11653;50.848;4.584;2023-02-11T09:36:55;69.03;;;29.00;;
22973;SDS011;11653;50.848;4.584;2023-02-11T09:39:21;78.10;;;30.60;;
22973;SDS011;11653;50.848;4.584;2023-02-11T09:44:34;70.50;;;28.07;;
22973;SDS011;11653;50.848;4.584;2023-02-11T09:49:39;83.77;;;30.97;;
22973;SDS011;11653;50.848;4.584;2023-02-11T09:52:15;84.40;;;31.03;;
22973;SDS011;11653;50.848;4.584;2023-02-11T09:55:26;78.93;;;30.10;;
22973;SDS011;11653;50.848;4.584;2023-02-11T09:57:52;70.43;;;30.40;;
22973;SDS011;11653;50.848;4.584;2023-02-11T10:00:21;70.53;;;27.33;;
22973;SDS011;11653;50.848;4.584;2023-02-11T10:05:58;78.77;;;31.10;;
22973;SDS011;11653;50.848;4.584;2023-02-11T10:08:50;85.17;;;30.63;;
22973;SDS011;11653;50.848;4.584;2023-02-11T10:20:38;69.80;;;29.13;;
22973;SDS011;11653;50.848;4.584;2023-02-11T10:23:41;72.57;;;28.40;;
22973;SDS011;11653;50.848;4.584;2023-02-11T10:26:13;73.70;;;28.93;;
22973;SDS011;11653;50.848;4.584;2023-02-11T10:28:42;83.70;;;29.93;;
22973;SDS011;11653;50.848;4.584;2023-02-11T10:31:12;76.67;;;30.67;;
22973;SDS011;11653;50.848;4.584;2023-02-11T10:33:50;69.10;;;26.90;;
22973;SDS011;11653;50.848;4.584;2023-02-11T10:36:23;66.47;;;27.90;;
22973;SDS011;11653;50.848;4.584;2023-02-11T10:39:08;71.00;;;27.90;;
22973;SDS011;11653;50.848;4.584;2023-02-11T10:41:45;69.37;;;27.80;;
22973;SDS011;11653;50.848;4.584;2023-02-11T10:44:22;72.70;;;28.27;;
22973;SDS011;11653;50.848;4.584;2023-02-11T10:46:50;69.13;;;29.23;;
22973;SDS011;11653;50.848;4.584;2023-02-11T10:49:33;75.97;;;30.10;;
22973;SDS011;11653;50.848;4.584;2023-02-11T10:57:37;67.80;;;27.70;;
22973;SDS011;11653;50.848;4.584;2023-02-11T11:03:01;73.30;;;31.40;;
22973;SDS011;11653;50.848;4.584;2023-02-11T11:05:51;70.93;;;27.40;;
22973;SDS011;11653;50.848;4.584;2023-02-11T11:08:17;61.07;;;26.47;;
22973;SDS011;11653;50.848;4.584;2023-02-11T11:11:03;73.23;;;29.43;;
22973;SDS011;11653;50.848;4.584;2023-02-11T11:13:35;69.90;;;29.17;;
22973;SDS011;11653;50.848;4.584;2023-02-11T11:16:07;79.63;;;29.73;;
22973;SDS011;11653;50.848;4.584;2023-02-11T11:18:36;73.03;;;29.40;;
22973;SDS011;11653;50.848;4.584;2023-02-11T11:21:10;69.07;;;29.53;;
22973;SDS011;11653;50.848;4.584;2023-02-11T11:24:00;66.30;;;29.73;;
22973;SDS011;11653;50.848;4.584;2023-02-11T11:27:15;71.17;;;29.00;;
22973;SDS011;11653;50.848;4.584;2023-02-11T11:29:19;69.13;;;27.87;;
22973;SDS011;11653;50.848;4.584;2023-02-11T11:31:52;66.10;;;29.50;;
22973;SDS011;11653;50.848;4.584;2023-02-11T11:34:35;63.90;;;28.70;;
22973;SDS011;11653;50.848;4.584;2023-02-11T11:37:10;70.87;;;29.57;;
22973;SDS011;11653;50.848;4.584;2023-02-11T11:39:52;68.37;;;26.00;;
22973;SDS011;11653;50.848;4.584;2023-02-11T11:42:33;68.57;;;28.27;;
22973;SDS011;11653;50.848;4.584;2023-02-11T11:45:02;65.17;;;29.00;;
22973;SDS011;11653;50.848;4.584;2023-02-11T11:50:34;65.90;;;29.23;;
22973;SDS011;11653;50.848;4.584;2023-02-11T11:56:15;70.57;;;29.37;;
22973;SDS011;11653;50.848;4.584;2023-02-11T11:58:52;66.47;;;28.93;;
22973;SDS011;11653;50.848;4.584;2023-02-11T12:07:01;74.40;;;29.17;;
22973;SDS011;11653;50.848;4.584;2023-02-11T12:10:08;70.50;;;30.50;;
22973;SDS011;11653;50.848;4.584;2023-02-11T12:18:57;75.07;;;30.57;;
22973;SDS011;11653;50.848;4.584;2023-02-11T12:32:54;68.10;;;28.57;;
22973;SDS011;11653;50.848;4.584;2023-02-11T12:38:31;69.07;;;29.87;;
22973;SDS011;11653;50.848;4.584;2023-02-11T12:43:41;72.67;;;29.57;;
22973;SDS011;11653;50.848;4.584;2023-02-11T12:49:13;71.57;;;30.03;;
22973;SDS011;11653;50.848;4.584;2023-02-11T12:54:47;81.93;;;30.83;;
22973;SDS011;11653;50.848;4.584;2023-02-11T13:02:58;66.03;;;28.77;;
22973;SDS011;11653;50.848;4.584;2023-02-11T13:05:36;71.33;;;30.10;;
22973;SDS011;11653;50.848;4.584;2023-02-11T13:08:15;69.10;;;28.23;;
22973;SDS011;11653;50.848;4.584;2023-02-11T13:10:53;68.13;;;29.53;;
22973;SDS011;11653;50.848;4.584;2023-02-11T13:13:38;66.40;;;28.47;;
22973;SDS011;11653;50.848;4.584;2023-02-11T13:16:29;71.37;;;30.47;;
22973;SDS011;11653;50.848;4.584;2023-02-11T13:19:02;64.60;;;27.07;;
22973;SDS011;11653;50.848;4.584;2023-02-11T13:21:41;70.40;;;30.63;;
22973;SDS011;11653;50.848;4.584;2023-02-11T13:33:18;65.20;;;30.13;;
22973;SDS011;11653;50.848;4.584;2023-02-11T13:35:49;75.23;;;30.40;;
22973;SDS011;11653;50.848;4.584;2023-02-11T13:38:31;69.63;;;31.47;;
22973;SDS011;11653;50.848;4.584;2023-02-11T13:43:32;72.17;;;31.27;;
22973;SDS011;11653;50.848;4.584;2023-02-11T13:46:01;72.80;;;31.63;;
22973;SDS011;11653;50.848;4.584;2023-02-11T13:48:30;71.77;;;31.40;;
22973;SDS011;11653;50.848;4.584;2023-02-11T13:51:14;76.07;;;30.57;;
22973;SDS011;11653;50.848;4.584;2023-02-11T13:53:59;75.93;;;30.83;;
22973;SDS011;11653;50.848;4.584;2023-02-11T13:56:27;67.07;;;30.97;;
22973;SDS011;11653;50.848;4.584;2023-02-11T13:58:59;68.83;;;30.87;;
22973;SDS011;11653;50.848;4.584;2023-02-11T14:04:20;75.07;;;31.73;;
22973;SDS011;11653;50.848;4.584;2023-02-11T14:13:12;77.50;;;31.90;;
22973;SDS011;11653;50.848;4.584;2023-02-11T14:16:07;73.10;;;30.73;;
22973;SDS011;11653;50.848;4.584;2023-02-11T14:21:20;77.67;;;32.90;;
22973;SDS011;11653;50.848;4.584;2023-02-11T14:35:20;74.77;;;32.90;;
22973;SDS011;11653;50.848;4.584;2023-02-11T14:38:06;78.80;;;33.10;;
22973;SDS011;11653;50.848;4.584;2023-02-11T14:43:22;76.43;;;33.83;;
22973;SDS011;11653;50.848;4.584;2023-02-11T14:45:50;81.47;;;35.77;;
22973;SDS011;11653;50.848;4.584;2023-02-11T14:48:20;71.40;;;32.73;;
22973;SDS011;11653;50.848;4.584;2023-02-11T14:50:51;73.30;;;32.40;;
22973;SDS011;11653;50.848;4.584;2023-02-11T14:53:23;74.17;;;33.53;;
22973;SDS011;11653;50.848;4.584;2023-02-11T14:55:53;76.90;;;33.17;;
22973;SDS011;11653;50.848;4.584;2023-02-11T14:58:23;73.53;;;33.27;;
22973;SDS011;11653;50.848;4.584;2023-02-11T15:03:36;82.33;;;33.77;;
22973;SDS011;11653;50.848;4.584;2023-02-11T15:08:28;80.73;;;35.67;;
22973;SDS011;11653;50.848;4.584;2023-02-11T15:10:54;78.27;;;34.60;;
22973;SDS011;11653;50.848;4.584;2023-02-11T15:13:22;73.10;;;33.80;;
22973;SDS011;11653;50.848;4.584;2023-02-11T15:15:53;85.03;;;35.63;;
22973;SDS011;11653;50.848;4.584;2023-02-11T15:18:23;88.70;;;34.93;;
22973;SDS011;11653;50.848;4.584;2023-02-11T15:20:54;78.70;;;34.17;;
22973;SDS011;11653;50.848;4.584;2023-02-11T15:23:24;82.47;;;34.57;;
22973;SDS011;11653;50.848;4.584;2023-02-11T15:25:52;77.03;;;34.43;;
22973;SDS011;11653;50.848;4.584;2023-02-11T15:28:30;84.00;;;35.67;;
22973;SDS011;11653;50.848;4.584;2023-02-11T15:33:39;83.77;;;36.37;;
22973;SDS011;11653;50.848;4.584;2023-02-11T15:36:05;80.70;;;35.03;;
22973;SDS011;11653;50.848;4.584;2023-02-11T15:38:31;78.57;;;35.93;;
22973;SDS011;11653;50.848;4.584;2023-02-11T15:40:58;92.93;;;38.80;;
22973;SDS011;11653;50.848;4.584;2023-02-11T15:43:43;93.60;;;38.40;;
22973;SDS011;11653;50.848;4.584;2023-02-11T15:46:10;82.80;;;36.53;;
22973;SDS011;11653;50.848;4.584;2023-02-11T15:48:43;87.57;;;38.60;;
22973;SDS011;11653;50.848;4.584;2023-02-11T15:51:23;79.27;;;36.47;;
22973;SDS011;11653;50.848;4.584;2023-02-11T15:54:03;87.50;;;36.43;;
22973;SDS011;11653;50.848;4.584;2023-02-11T15:56:43;84.13;;;37.87;;
22973;SDS011;11653;50.848;4.584;2023-02-11T16:01:50;92.50;;;37.70;;
22973;SDS011;11653;50.848;4.584;2023-02-11T16:04:18;85.57;;;37.37;;
22973;SDS011;11653;50.848;4.584;2023-02-11T16:06:48;84.87;;;38.47;;
22973;SDS011;11653;50.848;4.584;2023-02-11T16:16:47;84.30;;;38.37;;
22973;SDS011;11653;50.848;4.584;2023-02-11T16:19:17;78.70;;;37.13;;
22973;SDS011;11653;50.848;4.584;2023-02-11T16:21:44;80.37;;;37.87;;
22973;SDS011;11653;50.848;4.584;2023-02-11T16:24:30;89.23;;;39.93;;
22973;SDS011;11653;50.848;4.584;2023-02-11T16:26:58;90.07;;;39.33;;
22973;SDS011;11653;50.848;4.584;2023-02-11T16:29:27;84.30;;;38.57;;
22973;SDS011;11653;50.848;4.584;2023-02-11T16:32:07;95.50;;;40.63;;
22973;SDS011;11653;50.848;4.584;2023-02-11T16:34:39;94.40;;;39.90;;
22973;SDS011;11653;50.848;4.584;2023-02-11T16:37:05;81.43;;;37.53;;
22973;SDS011;11653;50.848;4.584;2023-02-11T16:39:31;82.73;;;38.70;;
22973;SDS011;11653;50.848;4.584;2023-02-11T16:41:57;90.03;;;36.77;;
22973;SDS011;11653;50.848;4.584;2023-02-11T16:44:23;89.10;;;38.83;;
22973;SDS011;11653;50.848;4.584;2023-02-11T16:46:50;92.37;;;38.80;;
22973;SDS011;11653;50.848;4.584;2023-02-11T16:49:27;85.63;;;36.97;;
22973;SDS011;11653;50.848;4.584;2023-02-11T16:51:57;94.43;;;38.53;;
22973;SDS011;11653;50.848;4.584;2023-02-11T16:54:27;81.40;;;38.07;;
22973;SDS011;11653;50.848;4.584;2023-02-11T16:56:54;81.10;;;39.27;;
22973;SDS011;11653;50.848;4.584;2023-02-11T16:59:20;85.97;;;40.90;;
22973;SDS011;11653;50.848;4.584;2023-02-11T17:01:46;93.00;;;38.93;;
22973;SDS011;11653;50.848;4.584;2023-02-11T17:04:18;98.93;;;40.83;;
22973;SDS011;11653;50.848;4.584;2023-02-11T17:06:45;97.20;;;40.87;;
22973;SDS011;11653;50.848;4.584;2023-02-11T17:09:19;87.53;;;38.43;;
22973;SDS011;11653;50.848;4.584;2023-02-11T17:11:49;94.57;;;40.23;;
22973;SDS011;11653;50.848;4.584;2023-02-11T17:14:15;84.37;;;39.50;;
22973;SDS011;11653;50.848;4.584;2023-02-11T17:16:42;91.93;;;40.93;;
22973;SDS011;11653;50.848;4.584;2023-02-11T17:19:13;93.77;;;40.63;;
22973;SDS011;11653;50.848;4.584;2023-02-11T17:21:44;90.03;;;39.80;;
22973;SDS011;11653;50.848;4.584;2023-02-11T17:24:11;97.17;;;42.70;;
22973;SDS011;11653;50.848;4.584;2023-02-11T17:26:39;93.63;;;42.80;;
22973;SDS011;11653;50.848;4.584;2023-02-11T17:29:10;95.47;;;43.53;;
22973;SDS011;11653;50.848;4.584;2023-02-11T17:31:38;94.77;;;43.43;;